sensor_id;sensor_type;location;lat;lon;timestamp;temperature;humidity
66343;DHT22;53144;51.524;5.080;2023-06-10T00:02:19;21.12;69.11
66343;DHT22;53144;51.524;5.080;2023-06-10T00:04:45;21.05;68.42
66343;DHT22;53144;51.524;5.080;2023-06-10T00:07:10;21.07;67.87
66343;DHT22;53144;51.524;5.080;2023-06-10T00:09:36;21.07;67.50
66343;DHT22;53144;51.524;5.080;2023-06-10T00:12:04;21.04;68.89
66343;DHT22;53144;51.524;5.080;2023-06-10T00:14:30;21.05;67.97
66343;DHT22;53144;51.524;5.080;2023-06-10T00:16:55;20.98;67.52
66343;DHT22;53144;51.524;5.080;2023-06-10T00:19:22;20.91;70.98
66343;DHT22;53144;51.524;5.080;2023-06-10T00:21:51;20.87;69.68
66343;DHT22;53144;51.524;5.080;2023-06-10T00:24:17;20.84;68.52
66343;DHT22;53144;51.524;5.080;2023-06-10T00:26:43;20.83;68.56
66343;DHT22;53144;51.524;5.080;2023-06-10T00:29:09;20.80;68.14
66343;DHT22;53144;51.524;5.080;2023-06-10T00:31:36;20.76;69.38
66343;DHT22;53144;51.524;5.080;2023-06-10T00:34:02;20.70;69.45
66343;DHT22;53144;51.524;5.080;2023-06-10T00:36:27;20.63;68.85
66343;DHT22;53144;51.524;5.080;2023-06-10T00:38:53;20.56;69.20
66343;DHT22;53144;51.524;5.080;2023-06-10T00:41:18;20.49;70.89
66343;DHT22;53144;51.524;5.080;2023-06-10T00:43:44;20.46;71.59
66343;DHT22;53144;51.524;5.080;2023-06-10T00:46:11;20.45;68.99
66343;DHT22;53144;51.524;5.080;2023-06-10T00:48:37;20.40;69.69
66343;DHT22;53144;51.524;5.080;2023-06-10T00:51:05;20.43;68.62
66343;DHT22;53144;51.524;5.080;2023-06-10T00:53:31;20.36;70.24
66343;DHT22;53144;51.524;5.080;2023-06-10T00:55:57;20.30;69.61
66343;DHT22;53144;51.524;5.080;2023-06-10T00:58:23;20.30;69.27
66343;DHT22;53144;51.524;5.080;2023-06-10T01:00:49;20.26;69.75
66343;DHT22;53144;51.524;5.080;2023-06-10T01:03:15;20.22;69.94
66343;DHT22;53144;51.524;5.080;2023-06-10T01:05:42;20.18;69.97
66343;DHT22;53144;51.524;5.080;2023-06-10T01:08:21;20.09;71.53
66343;DHT22;53144;51.524;5.080;2023-06-10T01:10:53;20.08;69.72
66343;DHT22;53144;51.524;5.080;2023-06-10T01:13:22;20.14;69.75
66343;DHT22;53144;51.524;5.080;2023-06-10T01:15:49;20.07;69.82
66343;DHT22;53144;51.524;5.080;2023-06-10T01:18:15;20.08;69.32
66343;DHT22;53144;51.524;5.080;2023-06-10T01:20:42;20.02;70.71
66343;DHT22;53144;51.524;5.080;2023-06-10T01:23:09;19.98;69.50
66343;DHT22;53144;51.524;5.080;2023-06-10T01:25:44;19.99;71.16
66343;DHT22;53144;51.524;5.080;2023-06-10T01:28:40;19.92;70.34
66343;DHT22;53144;51.524;5.080;2023-06-10T01:31:28;19.99;69.42
66343;DHT22;53144;51.524;5.080;2023-06-10T01:34:00;19.97;69.57
66343;DHT22;53144;51.524;5.080;2023-06-10T01:36:26;19.99;69.21
66343;DHT22;53144;51.524;5.080;2023-06-10T01:38:53;19.94;70.45
66343;DHT22;53144;51.524;5.080;2023-06-10T01:41:19;19.95;69.64
66343;DHT22;53144;51.524;5.080;2023-06-10T01:43:47;19.89;70.24
66343;DHT22;53144;51.524;5.080;2023-06-10T01:46:13;19.91;69.93
66343;DHT22;53144;51.524;5.080;2023-06-10T01:48:39;20.01;68.88
66343;DHT22;53144;51.524;5.080;2023-06-10T01:51:04;19.95;68.41
66343;DHT22;53144;51.524;5.080;2023-06-10T01:53:30;19.92;68.50
66343;DHT22;53144;51.524;5.080;2023-06-10T01:55:56;19.89;68.79
66343;DHT22;53144;51.524;5.080;2023-06-10T01:58:21;19.84;68.79
66343;DHT22;53144;51.524;5.080;2023-06-10T02:00:47;19.82;68.92
66343;DHT22;53144;51.524;5.080;2023-06-10T02:03:12;19.77;69.70
66343;DHT22;53144;51.524;5.080;2023-06-10T02:05:38;19.78;69.06
66343;DHT22;53144;51.524;5.080;2023-06-10T02:08:04;19.73;69.41
66343;DHT22;53144;51.524;5.080;2023-06-10T02:10:29;19.70;68.62
66343;DHT22;53144;51.524;5.080;2023-06-10T02:12:54;19.73;68.53
66343;DHT22;53144;51.524;5.080;2023-06-10T02:15:20;19.63;69.04
66343;DHT22;53144;51.524;5.080;2023-06-10T02:17:45;19.56;69.46
66343;DHT22;53144;51.524;5.080;2023-06-10T02:20:11;19.43;70.47
66343;DHT22;53144;51.524;5.080;2023-06-10T02:22:37;19.45;69.93
66343;DHT22;53144;51.524;5.080;2023-06-10T02:25:03;19.41;69.88
66343;DHT22;53144;51.524;5.080;2023-06-10T02:27:29;19.41;69.50
66343;DHT22;53144;51.524;5.080;2023-06-10T02:29:56;19.31;70.96
66343;DHT22;53144;51.524;5.080;2023-06-10T02:32:22;19.26;70.58
66343;DHT22;53144;51.524;5.080;2023-06-10T02:34:47;19.20;70.59
66343;DHT22;53144;51.524;5.080;2023-06-10T02:37:14;19.18;71.05
66343;DHT22;53144;51.524;5.080;2023-06-10T02:39:40;19.15;70.36
66343;DHT22;53144;51.524;5.080;2023-06-10T02:42:06;19.16;70.73
66343;DHT22;53144;51.524;5.080;2023-06-10T02:44:31;19.10;71.39
66343;DHT22;53144;51.524;5.080;2023-06-10T02:46:57;19.05;71.45
66343;DHT22;53144;51.524;5.080;2023-06-10T02:49:22;19.00;71.23
66343;DHT22;53144;51.524;5.080;2023-06-10T02:51:49;18.99;71.54
66343;DHT22;53144;51.524;5.080;2023-06-10T02:54:19;18.95;71.57
66343;DHT22;53144;51.524;5.080;2023-06-10T02:56:45;18.94;71.58
66343;DHT22;53144;51.524;5.080;2023-06-10T02:59:11;18.91;71.73
66343;DHT22;53144;51.524;5.080;2023-06-10T03:01:36;18.88;72.00
66343;DHT22;53144;51.524;5.080;2023-06-10T03:04:04;18.85;72.26
66343;DHT22;53144;51.524;5.080;2023-06-10T03:06:30;18.81;71.93
66343;DHT22;53144;51.524;5.080;2023-06-10T03:08:55;18.82;72.11
66343;DHT22;53144;51.524;5.080;2023-06-10T03:11:20;18.78;72.86
66343;DHT22;53144;51.524;5.080;2023-06-10T03:13:46;18.76;72.82
66343;DHT22;53144;51.524;5.080;2023-06-10T03:16:11;18.72;72.30
66343;DHT22;53144;51.524;5.080;2023-06-10T03:18:37;18.71;72.92
66343;DHT22;53144;51.524;5.080;2023-06-10T03:21:03;18.67;73.67
66343;DHT22;53144;51.524;5.080;2023-06-10T03:23:28;18.62;73.11
66343;DHT22;53144;51.524;5.080;2023-06-10T03:25:54;18.67;73.15
66343;DHT22;53144;51.524;5.080;2023-06-10T03:28:20;18.62;73.21
66343;DHT22;53144;51.524;5.080;2023-06-10T03:30:47;18.58;74.25
66343;DHT22;53144;51.524;5.080;2023-06-10T03:33:12;18.54;74.32
66343;DHT22;53144;51.524;5.080;2023-06-10T03:35:39;18.52;74.03
66343;DHT22;53144;51.524;5.080;2023-06-10T03:38:05;18.50;74.27
66343;DHT22;53144;51.524;5.080;2023-06-10T03:40:30;18.47;75.03
66343;DHT22;53144;51.524;5.080;2023-06-10T03:42:57;18.48;74.93
66343;DHT22;53144;51.524;5.080;2023-06-10T03:45:22;18.41;74.81
66343;DHT22;53144;51.524;5.080;2023-06-10T03:47:48;18.30;75.74
66343;DHT22;53144;51.524;5.080;2023-06-10T03:50:13;18.24;75.85
66343;DHT22;53144;51.524;5.080;2023-06-10T03:52:39;18.21;75.76
66343;DHT22;53144;51.524;5.080;2023-06-10T03:55:06;18.23;75.48
66343;DHT22;53144;51.524;5.080;2023-06-10T03:57:32;18.26;75.34
66343;DHT22;53144;51.524;5.080;2023-06-10T03:59:58;18.30;75.39
66343;DHT22;53144;51.524;5.080;2023-06-10T04:02:23;18.36;75.71
66343;DHT22;53144;51.524;5.080;2023-06-10T04:04:48;18.23;76.34
66343;DHT22;53144;51.524;5.080;2023-06-10T04:07:14;18.37;75.86
66343;DHT22;53144;51.524;5.080;2023-06-10T04:09:39;18.34;75.89
66343;DHT22;53144;51.524;5.080;2023-06-10T04:12:05;18.38;75.68
66343;DHT22;53144;51.524;5.080;2023-06-10T04:14:35;18.34;77.12
66343;DHT22;53144;51.524;5.080;2023-06-10T04:17:05;18.34;76.15
66343;DHT22;53144;51.524;5.080;2023-06-10T04:19:33;18.40;75.97
66343;DHT22;53144;51.524;5.080;2023-06-10T04:22:00;18.38;76.11
66343;DHT22;53144;51.524;5.080;2023-06-10T04:24:26;18.44;76.56
66343;DHT22;53144;51.524;5.080;2023-06-10T04:26:51;18.48;76.26
66343;DHT22;53144;51.524;5.080;2023-06-10T04:29:17;18.54;76.54
66343;DHT22;53144;51.524;5.080;2023-06-10T04:31:42;18.47;77.38
66343;DHT22;53144;51.524;5.080;2023-06-10T04:34:07;18.51;75.95
66343;DHT22;53144;51.524;5.080;2023-06-10T04:36:33;18.64;75.56
66343;DHT22;53144;51.524;5.080;2023-06-10T04:38:58;18.69;75.36
66343;DHT22;53144;51.524;5.080;2023-06-10T04:41:23;18.78;75.07
66343;DHT22;53144;51.524;5.080;2023-06-10T04:43:50;18.84;75.26
66343;DHT22;53144;51.524;5.080;2023-06-10T04:46:16;18.85;75.16
66343;DHT22;53144;51.524;5.080;2023-06-10T04:48:42;18.89;75.11
66343;DHT22;53144;51.524;5.080;2023-06-10T04:51:07;18.98;74.45
66343;DHT22;53144;51.524;5.080;2023-06-10T04:53:32;19.06;73.99
66343;DHT22;53144;51.524;5.080;2023-06-10T04:55:58;19.13;74.50
66343;DHT22;53144;51.524;5.080;2023-06-10T04:58:23;19.19;74.15
66343;DHT22;53144;51.524;5.080;2023-06-10T05:00:49;19.26;73.66
66343;DHT22;53144;51.524;5.080;2023-06-10T05:03:14;19.31;73.90
66343;DHT22;53144;51.524;5.080;2023-06-10T05:05:40;19.37;73.87
66343;DHT22;53144;51.524;5.080;2023-06-10T05:08:05;19.39;73.90
66343;DHT22;53144;51.524;5.080;2023-06-10T05:10:30;19.40;73.79
66343;DHT22;53144;51.524;5.080;2023-06-10T05:12:57;19.46;72.96
66343;DHT22;53144;51.524;5.080;2023-06-10T05:15:23;19.50;73.28
66343;DHT22;53144;51.524;5.080;2023-06-10T05:17:49;19.58;72.79
66343;DHT22;53144;51.524;5.080;2023-06-10T05:20:15;19.68;73.03
66343;DHT22;53144;51.524;5.080;2023-06-10T05:22:41;19.74;72.74
66343;DHT22;53144;51.524;5.080;2023-06-10T05:25:07;19.81;72.88
66343;DHT22;53144;51.524;5.080;2023-06-10T05:27:32;19.89;72.22
66343;DHT22;53144;51.524;5.080;2023-06-10T05:29:57;19.89;71.79
66343;DHT22;53144;51.524;5.080;2023-06-10T05:32:23;19.94;71.06
66343;DHT22;53144;51.524;5.080;2023-06-10T05:34:48;19.97;71.64
66343;DHT22;53144;51.524;5.080;2023-06-10T05:37:14;20.02;71.44
66343;DHT22;53144;51.524;5.080;2023-06-10T05:39:39;20.05;71.38
66343;DHT22;53144;51.524;5.080;2023-06-10T05:42:06;20.15;71.36
66343;DHT22;53144;51.524;5.080;2023-06-10T05:44:32;20.21;71.43
66343;DHT22;53144;51.524;5.080;2023-06-10T05:46:57;20.24;70.97
66343;DHT22;53144;51.524;5.080;2023-06-10T05:49:23;20.39;70.46
66343;DHT22;53144;51.524;5.080;2023-06-10T05:51:48;20.42;70.18
66343;DHT22;53144;51.524;5.080;2023-06-10T05:54:14;20.46;69.47
66343;DHT22;53144;51.524;5.080;2023-06-10T05:56:39;20.60;69.93
66343;DHT22;53144;51.524;5.080;2023-06-10T05:59:05;20.60;69.22
66343;DHT22;53144;51.524;5.080;2023-06-10T06:01:30;20.72;70.06
66343;DHT22;53144;51.524;5.080;2023-06-10T06:03:55;20.81;69.53
66343;DHT22;53144;51.524;5.080;2023-06-10T06:06:21;20.83;68.29
66343;DHT22;53144;51.524;5.080;2023-06-10T06:08:46;20.84;69.09
66343;DHT22;53144;51.524;5.080;2023-06-10T06:11:12;20.95;68.91
66343;DHT22;53144;51.524;5.080;2023-06-10T06:13:37;20.97;68.26
66343;DHT22;53144;51.524;5.080;2023-06-10T06:16:03;21.05;68.79
66343;DHT22;53144;51.524;5.080;2023-06-10T06:18:28;21.14;68.06
66343;DHT22;53144;51.524;5.080;2023-06-10T06:20:54;21.20;68.38
66343;DHT22;53144;51.524;5.080;2023-06-10T06:23:19;21.25;67.27
66343;DHT22;53144;51.524;5.080;2023-06-10T06:25:45;21.34;67.47
66343;DHT22;53144;51.524;5.080;2023-06-10T06:28:10;21.48;66.82
66343;DHT22;53144;51.524;5.080;2023-06-10T06:30:36;21.51;67.05
66343;DHT22;53144;51.524;5.080;2023-06-10T06:33:01;21.65;66.80
66343;DHT22;53144;51.524;5.080;2023-06-10T06:35:27;21.72;66.24
66343;DHT22;53144;51.524;5.080;2023-06-10T06:37:52;21.71;66.39
66343;DHT22;53144;51.524;5.080;2023-06-10T06:40:18;21.76;66.62
66343;DHT22;53144;51.524;5.080;2023-06-10T06:42:43;21.89;66.45
66343;DHT22;53144;51.524;5.080;2023-06-10T06:45:09;21.97;66.60
66343;DHT22;53144;51.524;5.080;2023-06-10T06:47:35;22.07;65.95
66343;DHT22;53144;51.524;5.080;2023-06-10T06:50:00;22.23;65.31
66343;DHT22;53144;51.524;5.080;2023-06-10T06:52:27;22.31;65.43
66343;DHT22;53144;51.524;5.080;2023-06-10T06:54:52;22.40;64.52
66343;DHT22;53144;51.524;5.080;2023-06-10T06:57:17;22.43;63.90
66343;DHT22;53144;51.524;5.080;2023-06-10T06:59:43;22.50;63.95
66343;DHT22;53144;51.524;5.080;2023-06-10T07:02:08;22.57;64.17
66343;DHT22;53144;51.524;5.080;2023-06-10T07:04:33;22.60;63.96
66343;DHT22;53144;51.524;5.080;2023-06-10T07:06:59;22.68;63.65
66343;DHT22;53144;51.524;5.080;2023-06-10T07:09:24;22.84;63.78
66343;DHT22;53144;51.524;5.080;2023-06-10T07:11:49;22.88;63.38
66343;DHT22;53144;51.524;5.080;2023-06-10T07:14:15;23.03;64.38
66343;DHT22;53144;51.524;5.080;2023-06-10T07:16:40;23.09;63.52
66343;DHT22;53144;51.524;5.080;2023-06-10T07:19:06;23.16;63.43
66343;DHT22;53144;51.524;5.080;2023-06-10T07:21:31;23.26;63.13
66343;DHT22;53144;51.524;5.080;2023-06-10T07:23:57;23.37;62.32
66343;DHT22;53144;51.524;5.080;2023-06-10T07:26:23;23.45;63.14
66343;DHT22;53144;51.524;5.080;2023-06-10T07:28:48;23.45;62.27
66343;DHT22;53144;51.524;5.080;2023-06-10T07:31:14;23.58;62.22
66343;DHT22;53144;51.524;5.080;2023-06-10T07:33:39;23.68;61.59
66343;DHT22;53144;51.524;5.080;2023-06-10T07:36:06;23.77;60.90
66343;DHT22;53144;51.524;5.080;2023-06-10T07:38:31;23.77;60.11
66343;DHT22;53144;51.524;5.080;2023-06-10T07:40:57;23.89;60.16
66343;DHT22;53144;51.524;5.080;2023-06-10T07:43:23;23.84;60.16
66343;DHT22;53144;51.524;5.080;2023-06-10T07:45:48;23.93;60.70
66343;DHT22;53144;51.524;5.080;2023-06-10T07:48:14;23.93;61.30
66343;DHT22;53144;51.524;5.080;2023-06-10T07:50:42;23.94;60.40
66343;DHT22;53144;51.524;5.080;2023-06-10T07:53:07;24.02;60.16
66343;DHT22;53144;51.524;5.080;2023-06-10T07:55:33;24.16;61.17
66343;DHT22;53144;51.524;5.080;2023-06-10T07:57:58;24.21;59.46
66343;DHT22;53144;51.524;5.080;2023-06-10T08:00:24;24.26;60.43
66343;DHT22;53144;51.524;5.080;2023-06-10T08:02:49;24.29;59.56
66343;DHT22;53144;51.524;5.080;2023-06-10T08:05:15;24.32;58.28
66343;DHT22;53144;51.524;5.080;2023-06-10T08:07:41;24.45;58.71
66343;DHT22;53144;51.524;5.080;2023-06-10T08:10:07;24.53;58.11
66343;DHT22;53144;51.524;5.080;2023-06-10T08:12:33;24.63;57.32
66343;DHT22;53144;51.524;5.080;2023-06-10T08:14:59;24.75;58.45
66343;DHT22;53144;51.524;5.080;2023-06-10T08:17:25;24.76;57.98
66343;DHT22;53144;51.524;5.080;2023-06-10T08:19:50;24.73;57.68
66343;DHT22;53144;51.524;5.080;2023-06-10T08:22:16;24.80;58.23
66343;DHT22;53144;51.524;5.080;2023-06-10T08:24:41;24.88;56.80
66343;DHT22;53144;51.524;5.080;2023-06-10T08:27:06;24.91;56.61
66343;DHT22;53144;51.524;5.080;2023-06-10T08:29:32;24.97;57.17
66343;DHT22;53144;51.524;5.080;2023-06-10T08:31:58;25.10;56.52
66343;DHT22;53144;51.524;5.080;2023-06-10T08:34:23;25.20;57.22
66343;DHT22;53144;51.524;5.080;2023-06-10T08:36:49;25.31;56.55
66343;DHT22;53144;51.524;5.080;2023-06-10T08:39:19;25.34;56.05
66343;DHT22;53144;51.524;5.080;2023-06-10T08:44:46;25.62;55.77
66343;DHT22;53144;51.524;5.080;2023-06-10T08:47:15;25.68;54.44
66343;DHT22;53144;51.524;5.080;2023-06-10T08:49:45;25.73;54.01
66343;DHT22;53144;51.524;5.080;2023-06-10T08:52:18;25.76;53.84
66343;DHT22;53144;51.524;5.080;2023-06-10T08:54:57;25.79;55.33
66343;DHT22;53144;51.524;5.080;2023-06-10T08:57:23;25.89;53.23
66343;DHT22;53144;51.524;5.080;2023-06-10T08:59:50;25.94;53.75
66343;DHT22;53144;51.524;5.080;2023-06-10T09:02:18;26.07;52.90
66343;DHT22;53144;51.524;5.080;2023-06-10T09:04:47;26.19;54.17
66343;DHT22;53144;51.524;5.080;2023-06-10T09:07:13;26.21;54.08
66343;DHT22;53144;51.524;5.080;2023-06-10T09:09:42;26.34;53.36
66343;DHT22;53144;51.524;5.080;2023-06-10T09:12:08;26.40;52.64
66343;DHT22;53144;51.524;5.080;2023-06-10T09:14:33;26.41;52.14
66343;DHT22;53144;51.524;5.080;2023-06-10T09:16:59;26.55;52.27
66343;DHT22;53144;51.524;5.080;2023-06-10T09:19:28;26.65;54.76
66343;DHT22;53144;51.524;5.080;2023-06-10T09:21:54;26.72;52.56
66343;DHT22;53144;51.524;5.080;2023-06-10T09:24:24;26.91;53.06
66343;DHT22;53144;51.524;5.080;2023-06-10T09:26:49;26.94;49.85
66343;DHT22;53144;51.524;5.080;2023-06-10T09:29:16;27.03;51.22
66343;DHT22;53144;51.524;5.080;2023-06-10T09:31:43;27.12;50.51
66343;DHT22;53144;51.524;5.080;2023-06-10T09:34:12;27.29;51.08
66343;DHT22;53144;51.524;5.080;2023-06-10T09:36:39;27.42;50.55
66343;DHT22;53144;51.524;5.080;2023-06-10T09:39:05;27.49;52.61
66343;DHT22;53144;51.524;5.080;2023-06-10T09:41:42;27.60;50.01
66343;DHT22;53144;51.524;5.080;2023-06-10T09:44:17;27.57;48.98
66343;DHT22;53144;51.524;5.080;2023-06-10T09:46:45;27.73;49.56
66343;DHT22;53144;51.524;5.080;2023-06-10T09:49:11;27.64;48.50
66343;DHT22;53144;51.524;5.080;2023-06-10T09:51:37;27.76;49.24
66343;DHT22;53144;51.524;5.080;2023-06-10T09:54:03;27.91;50.74
66343;DHT22;53144;51.524;5.080;2023-06-10T09:56:35;27.87;47.79
66343;DHT22;53144;51.524;5.080;2023-06-10T09:59:01;27.93;47.73
66343;DHT22;53144;51.524;5.080;2023-06-10T10:01:27;28.02;47.90
66343;DHT22;53144;51.524;5.080;2023-06-10T10:03:52;28.25;50.80
66343;DHT22;53144;51.524;5.080;2023-06-10T10:06:19;28.25;46.25
66343;DHT22;53144;51.524;5.080;2023-06-10T10:08:47;28.41;47.05
66343;DHT22;53144;51.524;5.080;2023-06-10T10:11:17;28.55;47.49
66343;DHT22;53144;51.524;5.080;2023-06-10T10:13:45;28.77;45.31
66343;DHT22;53144;51.524;5.080;2023-06-10T10:16:17;28.94;45.35
66343;DHT22;53144;51.524;5.080;2023-06-10T10:18:54;29.23;44.08
66343;DHT22;53144;51.524;5.080;2023-06-10T10:21:26;29.47;43.52
66343;DHT22;53144;51.524;5.080;2023-06-10T10:24:02;29.82;44.03
66343;DHT22;53144;51.524;5.080;2023-06-10T10:26:31;30.16;43.74
66343;DHT22;53144;51.524;5.080;2023-06-10T10:29:20;30.51;42.46
66343;DHT22;53144;51.524;5.080;2023-06-10T10:31:51;30.89;41.79
66343;DHT22;53144;51.524;5.080;2023-06-10T10:34:30;30.92;39.08
66343;DHT22;53144;51.524;5.080;2023-06-10T10:36:57;31.33;39.89
66343;DHT22;53144;51.524;5.080;2023-06-10T10:39:23;31.51;39.28
66343;DHT22;53144;51.524;5.080;2023-06-10T10:41:49;32.00;39.88
66343;DHT22;53144;51.524;5.080;2023-06-10T10:44:15;32.48;37.28
66343;DHT22;53144;51.524;5.080;2023-06-10T10:46:48;32.71;37.54
66343;DHT22;53144;51.524;5.080;2023-06-10T10:49:15;32.83;37.65
66343;DHT22;53144;51.524;5.080;2023-06-10T10:52:10;33.09;35.82
66343;DHT22;53144;51.524;5.080;2023-06-10T10:54:36;33.27;35.22
66343;DHT22;53144;51.524;5.080;2023-06-10T10:59:46;33.61;34.28
66343;DHT22;53144;51.524;5.080;2023-06-10T11:02:36;33.77;34.43
66343;DHT22;53144;51.524;5.080;2023-06-10T11:05:04;33.95;33.98
66343;DHT22;53144;51.524;5.080;2023-06-10T11:07:32;34.35;33.34
66343;DHT22;53144;51.524;5.080;2023-06-10T11:15:11;34.23;34.83
66343;DHT22;53144;51.524;5.080;2023-06-10T11:17:36;34.47;33.24
66343;DHT22;53144;51.524;5.080;2023-06-10T11:20:02;34.67;33.45
66343;DHT22;53144;51.524;5.080;2023-06-10T11:22:28;34.74;32.52
66343;DHT22;53144;51.524;5.080;2023-06-10T11:24:53;34.36;33.43
66343;DHT22;53144;51.524;5.080;2023-06-10T11:32:30;35.44;31.99
66343;DHT22;53144;51.524;5.080;2023-06-10T11:34:59;35.23;32.77
66343;DHT22;53144;51.524;5.080;2023-06-10T11:37:24;35.79;31.48
66343;DHT22;53144;51.524;5.080;2023-06-10T11:39:53;35.79;30.19
66343;DHT22;53144;51.524;5.080;2023-06-10T11:42:20;35.55;30.90
66343;DHT22;53144;51.524;5.080;2023-06-10T11:44:53;35.44;33.51
66343;DHT22;53144;51.524;5.080;2023-06-10T11:47:19;35.54;31.49
66343;DHT22;53144;51.524;5.080;2023-06-10T11:49:46;35.18;31.06
66343;DHT22;53144;51.524;5.080;2023-06-10T11:52:26;35.42;30.87
66343;DHT22;53144;51.524;5.080;2023-06-10T11:54:54;35.54;32.20
66343;DHT22;53144;51.524;5.080;2023-06-10T11:57:20;35.58;31.12
66343;DHT22;53144;51.524;5.080;2023-06-10T11:59:45;35.76;32.31
66343;DHT22;53144;51.524;5.080;2023-06-10T12:02:17;35.86;30.41
66343;DHT22;53144;51.524;5.080;2023-06-10T12:04:44;36.09;31.97
66343;DHT22;53144;51.524;5.080;2023-06-10T12:07:17;36.34;33.34
66343;DHT22;53144;51.524;5.080;2023-06-10T12:09:42;36.37;32.53
66343;DHT22;53144;51.524;5.080;2023-06-10T12:12:09;36.48;31.27
66343;DHT22;53144;51.524;5.080;2023-06-10T12:20:04;35.96;31.32
66343;DHT22;53144;51.524;5.080;2023-06-10T12:22:43;36.33;32.48
66343;DHT22;53144;51.524;5.080;2023-06-10T12:25:10;36.48;31.16
66343;DHT22;53144;51.524;5.080;2023-06-10T12:27:37;36.54;30.07
66343;DHT22;53144;51.524;5.080;2023-06-10T12:30:04;36.63;31.39
66343;DHT22;53144;51.524;5.080;2023-06-10T12:32:45;36.23;32.13
66343;DHT22;53144;51.524;5.080;2023-06-10T12:35:12;36.30;29.94
66343;DHT22;53144;51.524;5.080;2023-06-10T12:37:39;35.82;33.43
66343;DHT22;53144;51.524;5.080;2023-06-10T12:40:05;36.43;30.10
66343;DHT22;53144;51.524;5.080;2023-06-10T12:42:31;36.29;31.72
66343;DHT22;53144;51.524;5.080;2023-06-10T12:44:59;36.17;31.22
66343;DHT22;53144;51.524;5.080;2023-06-10T12:47:35;36.07;32.09
66343;DHT22;53144;51.524;5.080;2023-06-10T12:50:02;36.19;34.13
66343;DHT22;53144;51.524;5.080;2023-06-10T12:52:28;36.45;29.96
66343;DHT22;53144;51.524;5.080;2023-06-10T12:54:54;36.67;30.62
66343;DHT22;53144;51.524;5.080;2023-06-10T12:57:21;36.33;36.52
66343;DHT22;53144;51.524;5.080;2023-06-10T12:59:46;35.75;30.41
66343;DHT22;53144;51.524;5.080;2023-06-10T13:02:17;35.79;32.58
66343;DHT22;53144;51.524;5.080;2023-06-10T13:04:43;35.89;31.55
66343;DHT22;53144;51.524;5.080;2023-06-10T13:07:09;35.78;33.00
66343;DHT22;53144;51.524;5.080;2023-06-10T13:09:36;35.85;30.97
66343;DHT22;53144;51.524;5.080;2023-06-10T13:12:01;36.27;32.09
66343;DHT22;53144;51.524;5.080;2023-06-10T13:14:27;35.64;33.20
66343;DHT22;53144;51.524;5.080;2023-06-10T13:16:53;36.09;31.69
66343;DHT22;53144;51.524;5.080;2023-06-10T13:19:20;36.40;29.91
66343;DHT22;53144;51.524;5.080;2023-06-10T13:21:47;36.43;29.99
66343;DHT22;53144;51.524;5.080;2023-06-10T13:24:12;36.16;31.09
66343;DHT22;53144;51.524;5.080;2023-06-10T13:26:37;36.26;32.46
66343;DHT22;53144;51.524;5.080;2023-06-10T13:29:03;36.23;31.00
66343;DHT22;53144;51.524;5.080;2023-06-10T13:31:29;36.77;29.44
66343;DHT22;53144;51.524;5.080;2023-06-10T13:33:54;36.92;28.30
66343;DHT22;53144;51.524;5.080;2023-06-10T13:36:20;36.85;28.67
66343;DHT22;53144;51.524;5.080;2023-06-10T13:38:45;36.61;32.34
66343;DHT22;53144;51.524;5.080;2023-06-10T13:41:12;36.47;30.07
66343;DHT22;53144;51.524;5.080;2023-06-10T13:43:38;36.17;30.27
66343;DHT22;53144;51.524;5.080;2023-06-10T13:46:03;35.94;30.70
66343;DHT22;53144;51.524;5.080;2023-06-10T13:48:29;36.16;30.42
66343;DHT22;53144;51.524;5.080;2023-06-10T13:50:54;36.04;32.12
66343;DHT22;53144;51.524;5.080;2023-06-10T13:53:19;35.97;30.20
66343;DHT22;53144;51.524;5.080;2023-06-10T13:55:45;36.07;34.20
66343;DHT22;53144;51.524;5.080;2023-06-10T13:58:10;36.04;32.42
66343;DHT22;53144;51.524;5.080;2023-06-10T14:00:36;35.73;32.25
66343;DHT22;53144;51.524;5.080;2023-06-10T14:03:01;36.06;29.30
66343;DHT22;53144;51.524;5.080;2023-06-10T14:05:28;35.83;30.66
66343;DHT22;53144;51.524;5.080;2023-06-10T14:07:53;35.64;30.67
66343;DHT22;53144;51.524;5.080;2023-06-10T14:10:19;35.48;30.29
66343;DHT22;53144;51.524;5.080;2023-06-10T14:12:44;35.00;32.25
66343;DHT22;53144;51.524;5.080;2023-06-10T14:15:10;34.50;33.80
66343;DHT22;53144;51.524;5.080;2023-06-10T14:17:35;33.99;33.00
66343;DHT22;53144;51.524;5.080;2023-06-10T14:20:00;33.14;33.47
66343;DHT22;53144;51.524;5.080;2023-06-10T14:22:26;33.26;33.35
66343;DHT22;53144;51.524;5.080;2023-06-10T14:24:51;32.95;33.66
66343;DHT22;53144;51.524;5.080;2023-06-10T14:27:17;32.83;33.55
66343;DHT22;53144;51.524;5.080;2023-06-10T14:29:42;32.52;35.26
66343;DHT22;53144;51.524;5.080;2023-06-10T14:32:07;32.31;35.86
66343;DHT22;53144;51.524;5.080;2023-06-10T14:34:33;32.20;34.36
66343;DHT22;53144;51.524;5.080;2023-06-10T14:37:01;31.96;36.36
66343;DHT22;53144;51.524;5.080;2023-06-10T14:39:29;31.98;34.74
66343;DHT22;53144;51.524;5.080;2023-06-10T14:41:54;31.80;37.11
66343;DHT22;53144;51.524;5.080;2023-06-10T14:44:20;31.69;37.79
66343;DHT22;53144;51.524;5.080;2023-06-10T14:46:45;31.73;35.99
66343;DHT22;53144;51.524;5.080;2023-06-10T14:49:11;31.77;35.02
66343;DHT22;53144;51.524;5.080;2023-06-10T14:51:36;31.65;36.89
66343;DHT22;53144;51.524;5.080;2023-06-10T14:54:01;31.66;36.04
66343;DHT22;53144;51.524;5.080;2023-06-10T14:56:27;31.42;36.44
66343;DHT22;53144;51.524;5.080;2023-06-10T14:58:52;31.42;37.12
66343;DHT22;53144;51.524;5.080;2023-06-10T15:01:18;31.45;36.18
66343;DHT22;53144;51.524;5.080;2023-06-10T15:03:43;31.49;37.53
66343;DHT22;53144;51.524;5.080;2023-06-10T15:06:09;31.39;34.69
66343;DHT22;53144;51.524;5.080;2023-06-10T15:08:34;31.32;35.22
66343;DHT22;53144;51.524;5.080;2023-06-10T15:11:00;31.16;36.99
66343;DHT22;53144;51.524;5.080;2023-06-10T15:13:27;31.16;35.93
66343;DHT22;53144;51.524;5.080;2023-06-10T15:15:52;31.22;36.93
66343;DHT22;53144;51.524;5.080;2023-06-10T15:18:18;31.16;37.87
66343;DHT22;53144;51.524;5.080;2023-06-10T15:20:43;31.02;38.45
66343;DHT22;53144;51.524;5.080;2023-06-10T15:23:09;30.96;35.95
66343;DHT22;53144;51.524;5.080;2023-06-10T15:25:34;30.92;37.46
66343;DHT22;53144;51.524;5.080;2023-06-10T15:27:59;30.87;39.32
66343;DHT22;53144;51.524;5.080;2023-06-10T15:30:25;30.99;36.99
66343;DHT22;53144;51.524;5.080;2023-06-10T15:32:50;30.95;37.64
66343;DHT22;53144;51.524;5.080;2023-06-10T15:35:16;31.01;37.27
66343;DHT22;53144;51.524;5.080;2023-06-10T15:37:41;31.02;36.93
66343;DHT22;53144;51.524;5.080;2023-06-10T15:40:07;30.91;38.04
66343;DHT22;53144;51.524;5.080;2023-06-10T15:42:33;30.87;38.58
66343;DHT22;53144;51.524;5.080;2023-06-10T15:44:58;30.89;37.12
66343;DHT22;53144;51.524;5.080;2023-06-10T15:47:23;30.89;37.44
66343;DHT22;53144;51.524;5.080;2023-06-10T15:49:49;30.84;37.64